| time (UTC) | temp F | wind direction | speed MPH | gust MPH | rain 1hr in | rain 24hr in | rain mn in | humidity % | barometer mb |
| 20260901011933 | 71 | 0.0 | 1.0 | 0.00 | 0.00 | 0.00 | 11 | 1007.9 | |
| 20260901010922 | 71 | 0.0 | 1.0 | 0.00 | 0.00 | 0.00 | 11 | 1007.9 | |
| 20260901005910 | 71 | 0.0 | 1.0 | 0.00 | 0.00 | 0.00 | 11 | 1007.8 | |
| 20260901004859 | 71 | 0.0 | 1.0 | 0.00 | 0.00 | 0.00 | 11 | 1007.9 | |
| 20260901003848 | 71 | 0.0 | 1.0 | 0.00 | 0.00 | 0.00 | 11 | 1007.8 | |
| 20260901002837 | 71 | 0.0 | 1.0 | 0.00 | 0.00 | 0.00 | 11 | 1007.8 | |
| 20260901001725 | 71 | 0.0 | 1.0 | 0.00 | 0.00 | 0.00 | 11 | 1007.9 | |
| 20260901000714 | 71 | 0.0 | 1.0 | 0.00 | 0.00 | 0.00 | 11 | 1007.9 | |
| 20260831235657 | 71 | 0.0 | 1.0 | 0.00 | 0.00 | 0.00 | 11 | 1007.9 | |
| 20260831234646 | 71 | 0.0 | 0.0 | 0.00 | 0.00 | 0.00 | 11 | 1008.1 | |
| 20260831221057 | 73 | 0.0 | 0.0 | 0.00 | 0.00 | 0.00 | 11 | 1008.1 | |
| 20260831220046 | 73 | 0.0 | 1.0 | 0.00 | 0.00 | 0.00 | 11 | 1008.0 | |
| 20260831215034 | 73 | 0.0 | 0.0 | 0.00 | 0.00 | 0.00 | 11 | 1007.9 | |
| 20260831214023 | 73 | 0.0 | 0.0 | 0.00 | 0.00 | 0.00 | 11 | 1007.9 | |
| 20260831213012 | 73 | 0.0 | 1.0 | 0.00 | 0.00 | 0.00 | 11 | 1007.7 | |
| 20260831212001 | 73 | 0.0 | 0.0 | 0.00 | 0.00 | 0.00 | 11 | 1007.6 | |
| 20260831210647 | 75 | 0.0 | 0.0 | 0.00 | 0.00 | 0.00 | 11 | 1007.6 | |
| 20260831205130 | 75 | 0.0 | 1.0 | 0.00 | 0.00 | 0.00 | 11 | 1007.5 | |
| 20260831204119 | 75 | 0.0 | 1.0 | 0.00 | 0.00 | 0.00 | 11 | 1007.4 | |
| 20260831203107 | 75 | 0.0 | 0.0 | 0.00 | 0.00 | 0.00 | 11 | 1007.3 | |
| 20260831201348 | 75 | 0.0 | 3.0 | 0.00 | 0.00 | 0.00 | 11 | 1007.4 | |
| 20260831200133 | 75 | 0.0 | 1.0 | 0.00 | 0.00 | 0.00 | 11 | 1007.2 | |
| 20260831195119 | 75 | 0.0 | 1.0 | 0.00 | 0.00 | 0.00 | 11 | 1007.2 | |
| 20260831194107 | 75 | 0.0 | 0.0 | 0.00 | 0.00 | 0.00 | 11 | 1007.2 | |
| 20260831192750 | 75 | 0.0 | 0.0 | 0.00 | 0.00 | 0.00 | 11 | 1007.0 | |
| 20260831191534 | 77 | 0.0 | 0.0 | 0.00 | 0.00 | 0.00 | 11 | 1007.1 | |
| 20260831190320 | 77 | 0.0 | 0.0 | 0.00 | 0.00 | 0.00 | 11 | 1007.0 | |
| 20260831183651 | 77 | 0.0 | 0.0 | 0.00 | 0.00 | 0.00 | 11 | 1006.9 | |
| 20260831182437 | 77 | 0.0 | 1.0 | 0.00 | 0.00 | 0.00 | 11 | 1006.9 | |
| 20260831181426 | 77 | 0.0 | 1.0 | 0.00 | 0.00 | 0.00 | 11 | 1006.8 | |
| 20260831175504 | 78 | 0.0 | 0.0 | 0.00 | 0.00 | 0.00 | 11 | 1006.7 | |
| 20260831174453 | 78 | 0.0 | 3.0 | 0.00 | 0.00 | 0.00 | 11 | 1006.7 | |
| 20260831173435 | 78 | 3.0 | 3.0 | 0.00 | 0.00 | 0.00 | 11 | 1006.7 | |
| 20260831172423 | 78 | 0.0 | 2.0 | 0.00 | 0.00 | 0.00 | 11 | 1006.9 | |
| 20260831171412 | 80 | 0.0 | 3.0 | 0.00 | 0.00 | 0.00 | 11 | 1006.8 | |
| 20260831170401 | 80 | 1.0 | 4.0 | 0.00 | 0.00 | 0.00 | 11 | 1006.9 | |
| 20260831165348 | 80 | 2.0 | 3.0 | 0.00 | 0.00 | 0.00 | 11 | 1006.8 | |
| 20260831164337 | 80 | 1.0 | 3.0 | 0.00 | 0.00 | 0.00 | 11 | 1006.8 | |
| 20260831163325 | 82 | 2.0 | 4.0 | 0.00 | 0.00 | 0.00 | 11 | 1006.9 | |
| 20260831162313 | 82 | 1.0 | 4.0 | 0.00 | 0.00 | 0.00 | 11 | 1006.9 | |
| 20260831161303 | 80 | 1.0 | 5.0 | 0.00 | 0.00 | 0.00 | 11 | 1007.1 | |
| 20260831160251 | 80 | 0.0 | 4.0 | 0.00 | 0.00 | 0.00 | 11 | 1007.2 | |
| 20260831155240 | 82 | 2.0 | 4.0 | 0.00 | 0.00 | 0.00 | 11 | 1007.3 | |
| 20260831154228 | 82 | 1.0 | 4.0 | 0.00 | 0.00 | 0.00 | 11 | 1007.5 | |
| 20260831153217 | 84 | 3.0 | 4.0 | 0.00 | 0.00 | 0.00 | 11 | 1007.5 | |
| 20260831152205 | 84 | 0.0 | 3.0 | 0.00 | 0.00 | 0.00 | 11 | 1007.8 | |
| 20260831151153 | 84 | 1.0 | 7.0 | 0.00 | 0.00 | 0.00 | 11 | 1007.7 | |
| 20260831150140 | 86 | 2.0 | 4.0 | 0.00 | 0.00 | 0.00 | 11 | 1007.8 | |
| 20260831145128 | 87 | 0.0 | 4.0 | 0.00 | 0.00 | 0.00 | 11 | 1007.7 | |
| 20260831144116 | 86 | 1.0 | 8.0 | 0.00 | 0.00 | 0.00 | 11 | 1007.8 | |
| 20260831143104 | 87 | 2.0 | 5.0 | 0.00 | 0.00 | 0.00 | 11 | 1007.9 | |
| 20260831142051 | 86 | 2.0 | 4.0 | 0.00 | 0.00 | 0.00 | 11 | 1007.8 | |
| 20260831141037 | 87 | 1.0 | 3.0 | 0.00 | 0.00 | 0.00 | 11 | 1007.9 | |
| 20260831140024 | 86 | 4.0 | 6.0 | 0.00 | 0.00 | 0.00 | 11 | 1007.7 | |
| 20260831135010 | 86 | 1.0 | 4.0 | 0.00 | 0.00 | 0.00 | 11 | 1007.7 | |
| 20260831133958 | 86 | 2.0 | 4.0 | 0.00 | 0.00 | 0.00 | 11 | 1007.8 | |
| 20260831132940 | 89 | 0.0 | 5.0 | 0.00 | 0.00 | 0.00 | 10 | 1007.9 | |
| 20260831131927 | 84 | 4.0 | 6.0 | 0.00 | 0.00 | 0.00 | 11 | 1007.7 | |
| 20260831130916 | 86 | 0.0 | 4.0 | 0.00 | 0.00 | 0.00 | 11 | 1008.0 | |
| 20260831125903 | 86 | 2.0 | 4.0 | 0.00 | 0.00 | 0.00 | 11 | 1008.0 | |
| 20260831124851 | 86 | 1.0 | 6.0 | 0.00 | 0.00 | 0.00 | 11 | 1007.9 | |
| 20260831123838 | 86 | 2.0 | 4.0 | 0.00 | 0.00 | 0.00 | 11 | 1008.1 | |
| 20260831122826 | 86 | 2.0 | 4.0 | 0.00 | 0.00 | 0.00 | 11 | 1008.1 | |
| 20260831121811 | 87 | 2.0 | 4.0 | 0.00 | 0.00 | 0.00 | 11 | 1008.2 | |
| 20260831120801 | 87 | 1.0 | 4.0 | 0.00 | 0.00 | 0.00 | 11 | 1008.2 | |
| 20260831115749 | 86 | 2.0 | 4.0 | 0.00 | 0.00 | 0.00 | 11 | 1008.1 | |
| 20260831114737 | 86 | 1.0 | 6.0 | 0.00 | 0.00 | 0.00 | 11 | 1008.1 | |
| 20260831113726 | 82 | 6.0 | 8.0 | 0.00 | 0.00 | 0.00 | 11 | 1008.2 | |
| 20260831112711 | 84 | 2.0 | 7.0 | 0.00 | 0.00 | 0.00 | 11 | 1008.2 | |
| 20260831111656 | 87 | 0.0 | 6.0 | 0.00 | 0.00 | 0.00 | 11 | 1008.2 | |
| 20260831110644 | 84 | 2.0 | 6.0 | 0.00 | 0.00 | 0.00 | 11 | 1008.3 | |
| 20260831105632 | 84 | 4.0 | 7.0 | 0.00 | 0.00 | 0.00 | 11 | 1008.2 | |
| 20260831104621 | 82 | 5.0 | 9.0 | 0.00 | 0.00 | 0.00 | 11 | 1008.1 | |
| 20260831103609 | 87 | 3.0 | 6.0 | 0.00 | 0.00 | 0.00 | 11 | 1008.2 | |
| 20260831102557 | 89 | 2.0 | 5.0 | 0.00 | 0.00 | 0.00 | 11 | 1008.1 | |
| 20260831101545 | 89 | 0.0 | 7.0 | 0.00 | 0.00 | 0.00 | 11 | 1008.2 | |
| 20260831100533 | 87 | 3.0 | 8.0 | 0.00 | 0.00 | 0.00 | 11 | 1008.2 | |
| 20260831095518 | 87 | 5.0 | 7.0 | 0.00 | 0.00 | 0.00 | 11 | 1008.1 | |
| 20260831094507 | 89 | 1.0 | 6.0 | 0.00 | 0.00 | 0.00 | 11 | 1008.2 | |
| 20260831093455 | 87 | 3.0 | 9.0 | 0.00 | 0.00 | 0.00 | 11 | 1008.1 | |
| 20260831092442 | 87 | 2.0 | 6.0 | 0.00 | 0.00 | 0.00 | 11 | 1008.2 | |
| 20260831091431 | 87 | 3.0 | 8.0 | 0.00 | 0.00 | 0.00 | 11 | 1008.2 | |
| 20260831090420 | 87 | 2.0 | 8.0 | 0.00 | 0.00 | 0.00 | 11 | 1008.2 | |
| 20260831085405 | 87 | 4.0 | 6.0 | 0.00 | 0.00 | 0.00 | 10 | 1008.2 | |
| 20260831084354 | 87 | 5.0 | 9.0 | 0.00 | 0.00 | 0.00 | 10 | 1008.2 | |
| 20260831083343 | 89 | 0.0 | 1.0 | 0.00 | 0.00 | 0.00 | 11 | 1008.1 | |
| 20260831082330 | 87 | 3.0 | 5.0 | 0.00 | 0.00 | 0.00 | 11 | 1008.1 | |
| 20260831081318 | 86 | 0.0 | 3.0 | 0.00 | 0.00 | 0.00 | 11 | 1008.1 | |
| 20260831080306 | 86 | 0.0 | 6.0 | 0.00 | 0.00 | 0.00 | 11 | 1008.0 | |
| 20260831075254 | 86 | 1.0 | 4.0 | 0.00 | 0.00 | 0.00 | 11 | 1007.9 | |
| 20260831074242 | 84 | 0.0 | 5.0 | 0.00 | 0.00 | 0.00 | 11 | 1007.8 | |
| 20260831073230 | 82 | 0.0 | 3.0 | 0.00 | 0.00 | 0.00 | 11 | 1007.8 | |
| 20260831072217 | 80 | 0.0 | 1.0 | 0.00 | 0.00 | 0.00 | 11 | 1007.5 | |
| 20260831071206 | 80 | 0.0 | 0.0 | 0.00 | 0.00 | 0.00 | 11 | 1007.6 | |
| 20260831070154 | 78 | 0.0 | 0.0 | 0.00 | 0.00 | 0.00 | 11 | 1007.6 | |
| 20260831064131 | 78 | 0.0 | 1.0 | 0.00 | 0.00 | 0.00 | 11 | 1007.5 | |
| 20260831062614 | 77 | 0.0 | 0.0 | 0.00 | 0.00 | 0.00 | 11 | 1007.5 | |
| 20260831060647 | 69 | 0.0 | 0.0 | 0.00 | 0.00 | 0.00 | 11 | 1007.3 | |
| 20260831055635 | 69 | 0.0 | 0.0 | 0.00 | 0.00 | 0.00 | 11 | 1007.4 | |
| 20260831054624 | 69 | 0.0 | 0.0 | 0.00 | 0.00 | 0.00 | 11 | 1007.3 | |
| 20260831053006 | 69 | 0.0 | 0.0 | 0.00 | 0.00 | 0.00 | 11 | 1007.3 | |
| 20260831051348 | 68 | 0.0 | 0.0 | 0.00 | 0.00 | 0.00 | 11 | 1007.1 | |
| 20260831045325 | 68 | 0.0 | 0.0 | 0.00 | 0.00 | 0.00 | 11 | 1007.0 | |
| 20260831044314 | 68 | 0.0 | 0.0 | 0.00 | 0.00 | 0.00 | 11 | 1007.0 | |
| 20260831042757 | 69 | 0.0 | 0.0 | 0.00 | 0.00 | 0.00 | 11 | 1006.9 | |
| 20260831041241 | 69 | 0.0 | 0.0 | 0.00 | 0.00 | 0.00 | 11 | 1006.9 | |
| 20260831035623 | 69 | 0.0 | 1.0 | 0.00 | 0.00 | 0.00 | 11 | 1006.9 | |
| 20260831034611 | 69 | 0.0 | 0.0 | 0.00 | 0.00 | 0.00 | 11 | 1007.0 | |
| 20260831033601 | 69 | 0.0 | 3.0 | 0.00 | 0.00 | 0.00 | 11 | 1007.1 | |
| 20260831032549 | 69 | 0.0 | 1.0 | 0.00 | 0.00 | 0.00 | 11 | 1007.2 | |
| 20260831031538 | 69 | 0.0 | 2.0 | 0.00 | 0.00 | 0.00 | 11 | 1007.4 | |
| 20260831030527 | 69 | 0.0 | 0.0 | 0.00 | 0.00 | 0.00 | 11 | 1007.3 | |
| 20260831025515 | 69 | 0.0 | 0.0 | 0.00 | 0.00 | 0.00 | 11 | 1007.4 | |
| 20260831023958 | 68 | 0.0 | 0.0 | 0.00 | 0.00 | 0.00 | 11 | 1007.3 | |
| 20260831022341 | 69 | 0.0 | 1.0 | 0.00 | 0.00 | 0.00 | 11 | 1007.2 | |
| 20260831020622 | 69 | 0.0 | 0.0 | 0.00 | 0.00 | 0.00 | 11 | 1007.3 | |
| 20260831014458 | 69 | 0.0 | 0.0 | 0.00 | 0.00 | 0.00 | 11 | 1007.4 |